Marlinton, WV

10:49 PM EDT on August 21, 2014 (GMT -0400)
Ingalls | Change Station
CLOSE
Current Station
Airport
Location: Hot Springs,
Elevation: 3793 ft
Nearby Weather Stations

Elev 3793 ft 37.95 °N, 79.83 °W | Updated 19 minutes ago

Fog
Fog
63 °F
Feels Like 63 °F
N
10
Wind Variable Wind from West

Today
High -- | Low -- °F
--% Chance of Precip.
Yesterday
High -- | Low -- °F
Precip. -- in
6:40 AM 8:05 PM
Waning Crescent, 11% visible
Pressure 30.22 in
Visibility 0.2 miles
Clouds Overcast 200 ft
Dew Point 63 °F
Humidity 100%
Rainfall 0.71 in
Snow Depth Not available.
UV 0 out of 12
Pollen 9.00 out of 12
Air Quality Not available.
Flu Activity Not available.
METAR KHSP 220230Z AUTO 28009KT M1/4SM FG OVC002 17/17 A3022 RMK AO2 T01720172

More Conditions Fewer Conditions

Pressure 30.22 in
Visibility 0.2 miles
Clouds Overcast 200 ft
Dew Point 63 °F
Humidity 100%
Rainfall 0.71 in
Snow Depth Not available.
UV 0 out of 12
Pollen 9.00 out of 12
Air Quality Not available.
Flu Activity Not available.
METAR KHSP 220230Z AUTO 28009KT M1/4SM FG OVC002 17/17 A3022 RMK AO2 T01720172

More Conditions Fewer Conditions

10-Day Weather Forecast

Almanac

Astronomy

Aug. 21, 2014 Rise Set
Actual Time 6:40 AM EDT 8:05 PM EDT
Civil Twilight 6:12 AM EDT 8:33 PM EDT
Nautical Twilight 5:39 AM EDT 9:06 PM EDT
Astronomical Twilight 5:04 AM EDT 9:41 PM EDT
Moon 3:10 AM EDT (8/21) 5:32 PM EDT (8/21)
Length of Visible Light 14h 20m
Length of Day
13h 25m
Tomorrow will be 2m 16s shorter.
Waning Crescent, 11% of the Moon is Illuminated
Today
Waning Crescent
Aug 25
New
Sep 2
First Quarter
Sep 8
Full
Sep 15
Last Quarter

Today's Extremes

State Highs State Lows

Community

WunderPhotos

Upload Photos

1,746,109 photos uploaded!

WunderBlogs® & News

Nearby

Snow Depth

Station Depth Elevation
No new snow has been reported.

Earthquake Activity

City Distance Mag. Time & Date
No recent earthquake activity has been reported nearby.
Minimum magnitude displayed is 2.5.

Coastal Water Temperatures

Place Temperature
No Stations Reporting

Nearby Weather Stations